<?xml version="1.0" encoding="utf-8"?>
<gpx xmlns:xsi="http://www.w3.org/2001/XMLSchema-instance" xmlns:xsd="http://www.w3.org/2001/XMLSchema" version="1.1" creator="Shapelink.com" xmlns="http://www.topografix.com/GPX/1/1" xmlns:gpxtpx="http://www.garmin.com/xmlschemas/TrackPointExtension/v1">
  <metadata>
    <name>Övrigt 1.57 km, 2020-07-23</name>
    <desc></desc>
    <author><name>Marian Moron</name></author> 
    <time>2020-07-23T20:39:30Z</time>
  </metadata>
  <trk>
    <name>Övrigt 1.57 km, 2020-07-23</name>
    <trkseg>
      <trkpt lat="51.229967862545" lon="4.45851617361">
        <ele>0</ele>
        <time>2020-07-23T20:39:30Z</time>
      </trkpt>
      <trkpt lat="51.229969287468" lon="4.458562357879">
        <ele>0</ele>
        <time>2020-07-23T20:39:32Z</time>
      </trkpt>
      <trkpt lat="51.230046317129" lon="4.458743239281">
        <ele>0</ele>
        <time>2020-07-23T20:39:51Z</time>
      </trkpt>
      <trkpt lat="51.230109181379" lon="4.458761344185">
        <ele>0</ele>
        <time>2020-07-23T20:40:03Z</time>
      </trkpt>
      <trkpt lat="51.23042677157" lon="4.458660426109">
        <ele>0</ele>
        <time>2020-07-23T20:40:48Z</time>
      </trkpt>
      <trkpt lat="51.230512937502" lon="4.458626730871">
        <ele>0</ele>
        <time>2020-07-23T20:40:58Z</time>
      </trkpt>
      <trkpt lat="51.230689208859" lon="4.458564201897">
        <ele>0.8</ele>
        <time>2020-07-23T20:41:17Z</time>
      </trkpt>
      <trkpt lat="51.231120541433" lon="4.458468145323">
        <ele>0</ele>
        <time>2020-07-23T20:42:31Z</time>
      </trkpt>
      <trkpt lat="51.231234367635" lon="4.458396563897">
        <ele>0</ele>
        <time>2020-07-23T20:43:11Z</time>
      </trkpt>
      <trkpt lat="51.231254400376" lon="4.458375860604">
        <ele>0</ele>
        <time>2020-07-23T20:43:14Z</time>
      </trkpt>
      <trkpt lat="51.231487584834" lon="4.458243342765">
        <ele>0</ele>
        <time>2020-07-23T20:43:45Z</time>
      </trkpt>
      <trkpt lat="51.231635190093" lon="4.458336130398">
        <ele>0.8</ele>
        <time>2020-07-23T20:44:39Z</time>
      </trkpt>
      <trkpt lat="51.231669388245" lon="4.458659671738">
        <ele>3.4</ele>
        <time>2020-07-23T20:45:03Z</time>
      </trkpt>
      <trkpt lat="51.231713644677" lon="4.458944823976">
        <ele>0</ele>
        <time>2020-07-23T20:45:32Z</time>
      </trkpt>
      <trkpt lat="51.23185672371" lon="4.459353860696">
        <ele>0</ele>
        <time>2020-07-23T20:46:17Z</time>
      </trkpt>
      <trkpt lat="51.232060487699" lon="4.45928982298">
        <ele>0</ele>
        <time>2020-07-23T20:46:36Z</time>
      </trkpt>
      <trkpt lat="51.23243256024" lon="4.459370205401">
        <ele>0</ele>
        <time>2020-07-23T20:47:12Z</time>
      </trkpt>
      <trkpt lat="51.232550158297" lon="4.459327206254">
        <ele>0</ele>
        <time>2020-07-23T20:47:27Z</time>
      </trkpt>
      <trkpt lat="51.2327544252" lon="4.459291331722">
        <ele>0</ele>
        <time>2020-07-23T20:47:51Z</time>
      </trkpt>
      <trkpt lat="51.232859115131" lon="4.459693160008">
        <ele>2.2</ele>
        <time>2020-07-23T20:48:28Z</time>
      </trkpt>
      <trkpt lat="51.232939832828" lon="4.460077470123">
        <ele>0</ele>
        <time>2020-07-23T20:48:52Z</time>
      </trkpt>
      <trkpt lat="51.232980904138" lon="4.460378883247">
        <ele>3.2</ele>
        <time>2020-07-23T20:49:11Z</time>
      </trkpt>
      <trkpt lat="51.233060280731" lon="4.460606032737">
        <ele>7.4</ele>
        <time>2020-07-23T20:49:31Z</time>
      </trkpt>
      <trkpt lat="51.233277036665" lon="4.461211960288">
        <ele>26.6</ele>
        <time>2020-07-23T20:50:17Z</time>
      </trkpt>
      <trkpt lat="51.233273935362" lon="4.461253785969">
        <ele>26.6</ele>
        <time>2020-07-23T20:50:20Z</time>
      </trkpt>
      <trkpt lat="51.23326655929" lon="4.461936994638">
        <ele>10</ele>
        <time>2020-07-23T20:51:07Z</time>
      </trkpt>
      <trkpt lat="51.233311905369" lon="4.462310408283">
        <ele>8.4</ele>
        <time>2020-07-23T20:51:26Z</time>
      </trkpt>
      <trkpt lat="51.23318693124" lon="4.462590782838">
        <ele>0</ele>
        <time>2020-07-23T20:52:07Z</time>
      </trkpt>
      <trkpt lat="51.23316681468" lon="4.462601595489">
        <ele>0</ele>
        <time>2020-07-23T20:52:09Z</time>
      </trkpt>
      <trkpt lat="51.232974785351" lon="4.462615677081">
        <ele>3.6</ele>
        <time>2020-07-23T20:52:43Z</time>
      </trkpt>
      <trkpt lat="51.232541105845" lon="4.462799073053">
        <ele>7.8</ele>
        <time>2020-07-23T20:53:26Z</time>
      </trkpt>
      <trkpt lat="51.232313872536" lon="4.462927819037">
        <ele>2</ele>
        <time>2020-07-23T20:53:53Z</time>
      </trkpt>
      <trkpt lat="51.232112204022" lon="4.462725396152">
        <ele>0</ele>
        <time>2020-07-23T20:54:46Z</time>
      </trkpt>
      <trkpt lat="51.232108935081" lon="4.462525487837">
        <ele>0.6</ele>
        <time>2020-07-23T20:55:21Z</time>
      </trkpt>
      <trkpt lat="51.23212829727" lon="4.462138076419">
        <ele>0</ele>
        <time>2020-07-23T20:55:51Z</time>
      </trkpt>
      <trkpt lat="51.232039281492" lon="4.461679921765">
        <ele>0</ele>
        <time>2020-07-23T20:56:26Z</time>
      </trkpt>
      <trkpt lat="51.231885725084" lon="4.461052452731">
        <ele>0</ele>
        <time>2020-07-23T20:57:35Z</time>
      </trkpt>
      <trkpt lat="51.231884048704" lon="4.460966286799">
        <ele>0</ele>
        <time>2020-07-23T20:57:40Z</time>
      </trkpt>
      <trkpt lat="51.231828811983" lon="4.460265643778">
        <ele>0</ele>
        <time>2020-07-23T20:58:29Z</time>
      </trkpt>
      <trkpt lat="51.231807857233" lon="4.460054922812">
        <ele>0</ele>
        <time>2020-07-23T20:58:49Z</time>
      </trkpt>
      <trkpt lat="51.231679111249" lon="4.459471123477">
        <ele>0</ele>
        <time>2020-07-23T20:59:30Z</time>
      </trkpt>
      <trkpt lat="51.231701323284" lon="4.459116820564">
        <ele>7.4</ele>
        <time>2020-07-23T21:00:02Z</time>
      </trkpt>
      <trkpt lat="51.231589844014" lon="4.458860082967">
        <ele>6</ele>
        <time>2020-07-23T21:00:25Z</time>
      </trkpt>
      <trkpt lat="51.231568973083" lon="4.458856227293">
        <ele>5.6</ele>
        <time>2020-07-23T21:00:27Z</time>
      </trkpt>
      <trkpt lat="51.231357330108" lon="4.458514161954">
        <ele>0</ele>
        <time>2020-07-23T21:01:35Z</time>
      </trkpt>
      <trkpt lat="51.231263033733" lon="4.458591275434">
        <ele>0</ele>
        <time>2020-07-23T21:01:48Z</time>
      </trkpt>
      <trkpt lat="51.231090869507" lon="4.45867375333">
        <ele>0</ele>
        <time>2020-07-23T21:02:08Z</time>
      </trkpt>
      <trkpt lat="51.230640761477" lon="4.458785064962">
        <ele>0</ele>
        <time>2020-07-23T21:02:54Z</time>
      </trkpt>
      <trkpt lat="51.230209093627" lon="4.458960246672">
        <ele>0</ele>
        <time>2020-07-23T21:03:48Z</time>
      </trkpt>
      <trkpt lat="51.230199538261" lon="4.458967622744">
        <ele>0</ele>
        <time>2020-07-23T21:03:49Z</time>
      </trkpt>
      <trkpt lat="51.230060817816" lon="4.458929988013">
        <ele>0</ele>
        <time>2020-07-23T21:04:13Z</time>
      </trkpt>
      <trkpt lat="51.229915643308" lon="4.458309392137">
        <ele>0</ele>
        <time>2020-07-23T21:04:55Z</time>
      </trkpt>
      <trkpt lat="51.229690756931" lon="4.457816871693">
        <ele>0</ele>
        <time>2020-07-23T21:05:42Z</time>
      </trkpt>
      <trkpt lat="51.229546755889" lon="4.457874706803">
        <ele>0</ele>
        <time>2020-07-23T21:05:55Z</time>
      </trkpt>
      <trkpt lat="51.229202008342" lon="4.458113255677">
        <ele>0</ele>
        <time>2020-07-23T21:06:50Z</time>
      </trkpt>
      <trkpt lat="51.229277445442" lon="4.45809121128">
        <ele>0</ele>
        <time>2020-07-23T21:06:58Z</time>
      </trkpt>
      <trkpt lat="51.229332765982" lon="4.458077632602">
        <ele>0</ele>
        <time>2020-07-23T21:07:04Z</time>
      </trkpt>
    </trkseg>
  </trk>
</gpx>